Corbett, Oregon
Current Conditions -  °F | °C
As of 4:53 PM on Saturday 25 Oct 2014 (Local Time) from KTTD Reporting Station
Overcast Overcast  
Wind Chill: 60°   Ceiling: 5000
Heat Index: 60°   Visibility: 10mi
Dew Point: 53°   Wind: 20mph
Humidity: 78%   Direction: 180°S
Pressure: 29.45"   Gusts: 28mph
Location:  45.53°N, 122.29°W
Report Text: KTTD 252353Z AUTO 18017G24KT 10SM SCT030 BKN050 OVC070 16/12 A2945 RMK AO2 RAB2257E53 SLP973 P0002 60002 T01560117 10183 20139 53013 TSNO
Loading
Personal Weather Stations






























Interactive Weather Map
Tropical Storm Tracking
New forecast layout! Learn more

10-Day Weather Forecast

Advertisements
Track Severe Weather on mobile